Time;durP1;ratioP1;P1;durP2;ratioP2;P2;SDS_P1;SDS_P2;PMS_P1;PMS_P2;Temp;Humidity;BMP_temperature;BMP_pressure;BME280_temperature;BME280_humidity;BME280_pressure;Samples;Min_cycle;Max_cycle;Signal;HPM_P1;HPM_P2
2023/07/12 00:01:35;;;;;;;8.13;2.65;;;28.40;71.60;;;;;;5007452;28;20018;-54
2023/07/12 00:04:00;;;;;;;12.00;2.85;;;28.40;71.80;;;;;;5026363;28;20116;-54
2023/07/12 00:06:37;;;;;;;11.18;2.58;;;28.40;72.00;;;;;;5026257;28;20084;-54
2023/07/12 00:09:09;;;;;;;8.30;2.72;;;28.30;71.90;;;;;;5012970;28;20035;-54
2023/07/12 00:11:34;;;;;;;7.60;3.13;;;28.30;72.00;;;;;;5005520;28;20027;-54
2023/07/12 00:14:00;;;;;;;9.32;2.92;;;28.30;72.10;;;;;;5005109;28;20052;-54
2023/07/12 00:16:29;;;;;;;10.48;2.78;;;28.30;72.10;;;;;;5021640;28;20029;-54
2023/07/12 00:18:54;;;;;;;8.05;2.75;;;28.20;72.00;;;;;;5024910;28;20030;-54
2023/07/12 00:21:22;;;;;;;7.45;2.85;;;28.20;72.20;;;;;;5009198;28;20038;-54
2023/07/12 00:23:52;;;;;;;6.82;2.50;;;28.20;72.20;;;;;;5009369;28;20026;-54
2023/07/12 00:26:25;;;;;;;9.63;2.92;;;28.10;72.20;;;;;;5001562;28;20034;-54
2023/07/12 00:28:51;;;;;;;3.70;2.10;;;28.10;72.30;;;;;;5021407;28;20030;-54
2023/07/12 00:31:16;;;;;;;9.85;2.88;;;28.10;72.50;;;;;;5020993;28;20032;-54
2023/07/12 00:33:42;;;;;;;7.93;2.58;;;28.10;72.60;;;;;;5027941;28;20041;-54
2023/07/12 00:36:16;;;;;;;5.63;3.00;;;28.00;72.50;;;;;;5028441;28;20500;-54
2023/07/12 00:38:42;;;;;;;9.38;3.03;;;28.00;72.70;;;;;;5028470;28;20030;-54
2023/07/12 00:41:07;;;;;;;6.82;2.67;;;28.00;72.70;;;;;;5029722;28;20025;-54
2023/07/12 00:43:55;;;;;;;6.30;2.78;;;28.00;72.80;;;;;;5029886;28;20409;-54
2023/07/12 00:46:41;;;;;;;16.08;3.17;;;27.90;72.60;;;;;;5012081;28;20025;-54
2023/07/12 00:49:10;;;;;;;6.55;2.85;;;27.90;72.70;;;;;;5029377;28;20406;-54
2023/07/12 00:52:00;;;;;;;9.15;2.47;;;27.90;72.70;;;;;;5028201;28;20033;-54
2023/07/12 00:54:46;;;;;;;9.35;2.55;;;27.90;72.80;;;;;;5029717;28;20441;-54
2023/07/12 00:57:11;;;;;;;4.78;2.65;;;27.90;72.80;;;;;;5011773;28;20030;-53
2023/07/12 00:59:37;;;;;;;8.13;2.42;;;27.90;72.90;;;;;;5028417;28;20093;-54
2023/07/12 01:02:03;;;;;;;8.73;2.80;;;27.80;72.80;;;;;;5028188;28;20124;-54
2023/07/12 01:04:32;;;;;;;6.65;2.60;;;27.80;72.90;;;;;;5011836;28;20371;-54
2023/07/12 01:06:57;;;;;;;4.88;2.30;;;27.80;73.20;;;;;;5028050;28;20045;-54
2023/07/12 01:09:23;;;;;;;7.55;2.50;;;27.80;73.40;;;;;;5028218;28;20030;-54
2023/07/12 01:11:48;;;;;;;8.20;3.00;;;27.80;73.40;;;;;;5027996;28;20018;-54
2023/07/12 01:14:16;;;;;;;7.55;2.55;;;27.70;73.20;;;;;;5028010;28;20044;-54
2023/07/12 01:16:43;;;;;;;5.50;2.22;;;27.70;73.30;;;;;;5017894;28;20041;-54
2023/07/12 01:19:09;;;;;;;6.40;2.53;;;27.70;73.40;;;;;;5027462;28;20065;-54
2023/07/12 01:21:36;;;;;;;5.38;2.60;;;27.70;73.50;;;;;;5027282;28;20033;-54
2023/07/12 01:24:02;;;;;;;7.75;2.47;;;27.60;73.60;;;;;;5026661;28;20125;-54
2023/07/12 01:26:36;;;;;;;6.45;2.65;;;27.60;73.70;;;;;;5025421;28;20555;-54
2023/07/12 01:29:03;;;;;;;6.75;2.20;;;27.60;73.70;;;;;;5009918;28;20041;-54
2023/07/12 01:31:29;;;;;;;8.98;2.45;;;27.50;73.60;;;;;;5007288;28;20026;-54
2023/07/12 01:33:55;;;;;;;9.63;2.53;;;27.50;73.80;;;;;;5007907;28;20057;-54
2023/07/12 01:36:21;;;;;;;5.30;2.60;;;27.50;73.90;;;;;;5022487;28;20042;-54
2023/07/12 01:38:48;;;;;;;4.13;2.30;;;27.50;74.10;;;;;;4998776;28;20080;-54
2023/07/12 01:41:13;;;;;;;4.72;2.55;;;27.50;74.20;;;;;;5015275;28;20050;-54
2023/07/12 01:43:39;;;;;;;5.80;2.33;;;27.50;74.30;;;;;;5018212;28;20045;-53
2023/07/12 01:46:04;;;;;;;4.28;2.45;;;27.50;74.40;;;;;;5027932;28;20022;-54
2023/07/12 01:48:30;;;;;;;4.38;2.55;;;27.40;74.30;;;;;;5023446;28;20046;-54
2023/07/12 01:50:56;;;;;;;5.40;2.72;;;27.40;74.30;;;;;;5028661;28;20025;-54
2023/07/12 01:53:22;;;;;;;7.32;2.75;;;27.40;74.40;;;;;;5026760;28;20038;-54
2023/07/12 01:55:47;;;;;;;4.55;2.10;;;27.40;74.50;;;;;;5027604;28;20082;-54
2023/07/12 01:58:13;;;;;;;9.15;2.63;;;27.40;74.60;;;;;;5027478;28;20076;-54
2023/07/12 02:00:38;;;;;;;12.18;4.72;;;27.40;74.60;;;;;;5026341;28;20034;-54
2023/07/12 02:03:04;;;;;;;10.02;6.20;;;27.30;74.50;;;;;;5026339;28;20038;-54
2023/07/12 02:05:30;;;;;;;5.60;3.95;;;27.30;74.50;;;;;;5026816;28;20030;-54
2023/07/12 02:07:56;;;;;;;9.32;3.92;;;27.30;75.40;;;;;;5009974;28;20402;-54
2023/07/12 02:10:22;;;;;;;6.32;2.85;;;27.30;74.70;;;;;;5028210;28;20026;-54
2023/07/12 02:12:47;;;;;;;7.20;3.25;;;27.20;74.70;;;;;;5026702;28;20037;-54
2023/07/12 02:15:13;;;;;;;5.95;3.63;;;27.20;74.70;;;;;;5026464;28;20030;-54
2023/07/12 02:17:39;;;;;;;5.88;3.60;;;27.20;74.90;;;;;;5026683;28;20041;-54
2023/07/12 02:20:06;;;;;;;7.93;3.55;;;27.20;75.10;;;;;;5028071;28;20105;-54
2023/07/12 02:22:33;;;;;;;6.32;3.35;;;27.20;75.20;;;;;;5026394;28;20034;-54
2023/07/12 02:24:58;;;;;;;9.38;3.72;;;27.20;75.20;;;;;;5027824;28;20022;-54
2023/07/12 02:27:24;;;;;;;7.28;3.50;;;27.20;75.40;;;;;;5026540;28;20117;-54
2023/07/12 02:29:50;;;;;;;9.45;3.30;;;27.20;75.50;;;;;;5026672;28;20097;-54
2023/07/12 02:32:15;;;;;;;5.43;3.25;;;27.20;75.50;;;;;;5026608;28;20085;-54
2023/07/12 02:34:41;;;;;;;7.30;5.15;;;27.10;75.60;;;;;;5026561;28;20049;-54
2023/07/12 02:37:06;;;;;;;7.90;4.78;;;27.10;75.60;;;;;;5026633;28;20045;-54
2023/07/12 02:39:32;;;;;;;9.02;4.38;;;27.10;75.80;;;;;;5027790;28;20082;-54
2023/07/12 02:41:58;;;;;;;7.57;4.47;;;27.10;75.80;;;;;;5027751;28;20034;-54
2023/07/12 02:44:23;;;;;;;7.78;4.22;;;27.10;75.80;;;;;;5027233;28;20060;-54
2023/07/12 02:46:49;;;;;;;9.45;4.20;;;27.00;75.80;;;;;;5027974;28;20025;-54
2023/07/12 02:49:14;;;;;;;6.72;3.58;;;27.00;75.90;;;;;;5027213;28;20108;-54
2023/07/12 02:51:40;;;;;;;8.52;3.30;;;27.00;76.00;;;;;;5027790;28;20049;-54
2023/07/12 02:54:05;;;;;;;8.38;3.30;;;27.00;76.10;;;;;;5028147;28;20029;-53
2023/07/12 02:56:31;;;;;;;10.00;3.92;;;27.00;76.30;;;;;;5026991;28;20176;-54
2023/07/12 02:58:56;;;;;;;8.90;3.80;;;26.90;76.30;;;;;;5027438;28;20041;-54
2023/07/12 03:01:22;;;;;;;6.85;3.70;;;26.90;76.20;;;;;;5027798;28;20085;-54
2023/07/12 03:03:48;;;;;;;6.65;4.30;;;26.90;76.30;;;;;;5027980;28;20041;-54
2023/07/12 03:06:13;;;;;;;9.57;5.00;;;26.90;76.30;;;;;;5026715;28;20046;-53
2023/07/12 03:08:39;;;;;;;11.02;5.60;;;26.90;76.30;;;;;;5024560;28;20034;-53
2023/07/12 03:11:06;;;;;;;7.00;5.20;;;26.90;76.40;;;;;;5021611;28;20050;-54
2023/07/12 03:13:32;;;;;;;8.95;4.82;;;26.90;76.50;;;;;;5013576;28;20037;-53
2023/07/12 03:15:58;;;;;;;7.50;4.50;;;26.90;76.60;;;;;;5024491;28;20081;-54
2023/07/12 03:18:24;;;;;;;8.00;3.88;;;26.90;76.80;;;;;;5015433;28;20113;-54
2023/07/12 03:20:49;;;;;;;7.75;4.35;;;26.90;77.00;;;;;;5028052;28;20038;-54
2023/07/12 03:23:16;;;;;;;9.57;4.20;;;26.80;76.90;;;;;;5029259;28;20482;-54
2023/07/12 03:25:45;;;;;;;7.90;3.88;;;26.80;77.00;;;;;;5022627;28;20041;-54
2023/07/12 03:28:11;;;;;;;6.97;4.10;;;26.80;77.70;;;;;;5005374;28;20034;-54
2023/07/12 03:30:37;;;;;;;11.43;4.07;;;26.80;76.90;;;;;;5018022;28;20022;-54
2023/07/12 03:33:02;;;;;;;12.55;4.57;;;26.80;77.00;;;;;;5024717;28;20033;-54
2023/07/12 03:35:28;;;;;;;8.23;4.13;;;26.80;76.90;;;;;;5023937;28;20029;-54
2023/07/12 03:37:53;;;;;;;14.48;4.60;;;26.70;76.90;;;;;;5024810;28;20045;-54
2023/07/12 03:40:19;;;;;;;24.00;5.50;;;26.70;76.90;;;;;;5024887;28;20029;-54
2023/07/12 03:42:44;;;;;;;29.58;6.43;;;26.70;76.90;;;;;;5024681;28;20097;-54
2023/07/12 03:45:10;;;;;;;23.42;5.75;;;26.70;77.00;;;;;;5025346;28;20437;-54
2023/07/12 03:47:36;;;;;;;26.75;5.18;;;26.70;77.20;;;;;;5025306;28;20123;-54
2023/07/12 03:50:01;;;;;;;21.83;5.30;;;26.70;77.90;;;;;;5014778;28;20099;-54
2023/07/12 03:52:27;;;;;;;19.90;5.43;;;26.70;77.30;;;;;;5006263;28;20037;-54
2023/07/12 03:54:52;;;;;;;17.48;4.75;;;26.60;77.40;;;;;;5024201;28;20049;-54
2023/07/12 03:57:18;;;;;;;13.27;4.70;;;26.70;78.20;;;;;;5025561;28;20037;-54
2023/07/12 03:59:43;;;;;;;21.08;4.90;;;26.60;77.60;;;;;;5026613;28;20090;-53
2023/07/12 04:02:09;;;;;;;22.73;5.20;;;26.60;77.70;;;;;;4993400;28;20041;-54
2023/07/12 04:04:35;;;;;;;20.70;5.35;;;26.60;77.70;;;;;;5025108;28;20030;-54
2023/07/12 04:07:02;;;;;;;21.33;4.95;;;26.60;77.80;;;;;;5008930;28;20029;-54
2023/07/12 04:09:27;;;;;;;18.10;5.25;;;26.60;77.60;;;;;;5024880;28;20026;-54
2023/07/12 04:11:53;;;;;;;17.23;4.65;;;26.60;77.20;;;;;;5018298;28;20026;-54
2023/07/12 04:14:19;;;;;;;27.60;4.90;;;26.60;77.00;;;;;;5023244;28;20072;-54
2023/07/12 04:16:46;;;;;;;16.05;4.35;;;26.60;77.10;;;;;;5025553;28;20228;-54
2023/07/12 04:19:12;;;;;;;19.25;4.30;;;26.60;77.20;;;;;;5026391;28;20038;-54
2023/07/12 04:21:37;;;;;;;18.48;4.80;;;26.60;77.40;;;;;;5025698;28;20032;-54
2023/07/12 04:24:04;;;;;;;24.15;4.53;;;26.60;77.60;;;;;;5026211;28;20038;-54
2023/07/12 04:26:30;;;;;;;17.63;4.90;;;26.50;77.60;;;;;;5026479;28;20073;-54
2023/07/12 04:28:55;;;;;;;17.13;4.47;;;26.50;77.80;;;;;;5026575;28;20042;-54
2023/07/12 04:31:21;;;;;;;17.50;4.15;;;26.40;78.00;;;;;;5007491;28;20054;-54
2023/07/12 04:33:47;;;;;;;11.82;4.25;;;26.40;78.20;;;;;;5025266;28;20030;-54
2023/07/12 04:36:13;;;;;;;16.15;3.83;;;26.40;78.20;;;;;;5008969;28;20036;-54
2023/07/12 04:38:39;;;;;;;16.38;4.50;;;26.30;78.30;;;;;;5026370;28;20089;-54
2023/07/12 04:41:05;;;;;;;19.80;4.40;;;26.30;79.20;;;;;;5024020;28;20053;-54
2023/07/12 04:43:30;;;;;;;12.70;3.90;;;26.30;78.60;;;;;;5024500;28;20044;-54
2023/07/12 04:45:57;;;;;;;15.05;4.43;;;26.30;78.80;;;;;;5012238;28;20052;-54
2023/07/12 04:48:22;;;;;;;12.40;4.18;;;26.30;79.00;;;;;;5024353;28;20034;-54
2023/07/12 04:50:52;;;;;;;18.73;4.40;;;26.30;79.80;;;;;;5015100;28;20023;-54
2023/07/12 04:53:18;;;;;;;11.00;4.13;;;26.20;79.40;;;;;;5010696;28;20038;-54
2023/07/12 04:55:43;;;;;;;18.23;4.05;;;26.20;79.50;;;;;;5008534;28;20114;-55
2023/07/12 04:58:09;;;;;;;16.40;4.00;;;26.20;79.60;;;;;;5025133;28;20030;-55
2023/07/12 05:00:35;;;;;;;13.82;4.15;;;26.20;79.70;;;;;;5025432;28;20038;-54
2023/07/12 05:03:00;;;;;;;15.85;3.97;;;26.20;79.80;;;;;;5023939;28;20042;-54
2023/07/12 05:05:26;;;;;;;14.23;4.38;;;26.20;79.80;;;;;;5027052;28;20033;-55
2023/07/12 05:07:51;;;;;;;13.73;4.53;;;26.20;80.00;;;;;;5026117;28;20038;-55
2023/07/12 05:10:17;;;;;;;12.52;4.00;;;26.20;79.50;;;;;;5024869;28;20050;-55
2023/07/12 05:12:43;;;;;;;11.80;3.85;;;26.10;79.30;;;;;;5027185;28;20036;-55
2023/07/12 05:15:09;;;;;;;12.55;4.07;;;26.10;79.40;;;;;;5027165;28;20037;-55
2023/07/12 05:17:35;;;;;;;12.85;3.90;;;26.10;79.50;;;;;;5025386;28;20038;-55
2023/07/12 05:20:02;;;;;;;14.07;3.75;;;26.10;79.70;;;;;;5007103;28;20541;-55
2023/07/12 05:22:28;;;;;;;9.40;3.83;;;26.10;79.70;;;;;;5023303;28;20060;-54
2023/07/12 05:24:55;;;;;;;12.60;3.92;;;26.10;79.90;;;;;;5025654;28;20026;-55
2023/07/12 05:27:20;;;;;;;11.93;4.22;;;26.10;79.80;;;;;;5028763;28;20061;-54
2023/07/12 05:29:46;;;;;;;11.35;4.03;;;26.10;80.00;;;;;;5026420;28;20269;-54
2023/07/12 05:32:13;;;;;;;12.68;4.07;;;26.00;80.10;;;;;;5029142;28;20022;-55
2023/07/12 05:34:39;;;;;;;16.75;3.70;;;26.00;80.40;;;;;;5027173;28;20014;-54
2023/07/12 05:37:04;;;;;;;9.32;3.92;;;26.00;80.20;;;;;;5025405;28;20684;-55
2023/07/12 05:39:30;;;;;;;11.35;3.85;;;26.00;80.10;;;;;;5026809;28;20072;-55
2023/07/12 05:41:56;;;;;;;13.68;4.20;;;26.10;80.20;;;;;;5007195;28;20442;-55
2023/07/12 05:44:21;;;;;;;13.95;4.03;;;26.00;80.30;;;;;;5010143;28;20053;-54
2023/07/12 05:46:47;;;;;;;11.32;4.03;;;26.00;79.90;;;;;;5013939;28;20025;-54
2023/07/12 05:49:13;;;;;;;10.00;3.80;;;26.00;79.90;;;;;;5002399;28;20042;-55
2023/07/12 05:51:39;;;;;;;14.63;3.85;;;26.00;79.90;;;;;;5026343;28;20052;-55
2023/07/12 05:54:04;;;;;;;16.25;4.78;;;26.00;80.30;;;;;;5007177;28;20044;-55
2023/07/12 05:56:30;;;;;;;11.50;4.13;;;26.00;80.60;;;;;;5023986;28;20034;-55
2023/07/12 05:58:55;;;;;;;8.90;4.05;;;26.00;80.70;;;;;;5027822;28;20117;-55
2023/07/12 06:01:21;;;;;;;12.00;3.58;;;26.00;81.70;;;;;;5020328;28;20501;-55
2023/07/12 06:03:47;;;;;;;16.25;4.30;;;26.00;81.50;;;;;;5022661;28;20033;-55
2023/07/12 06:06:12;;;;;;;15.10;4.28;;;26.00;82.00;;;;;;5007738;28;20435;-55
2023/07/12 06:08:38;;;;;;;12.07;4.07;;;26.00;81.40;;;;;;5010074;28;20029;-55
2023/07/12 06:11:04;;;;;;;10.00;4.65;;;26.00;81.70;;;;;;5025375;28;20032;-54
2023/07/12 06:13:29;;;;;;;9.60;4.47;;;26.00;81.60;;;;;;5013185;28;20437;-55
2023/07/12 06:15:55;;;;;;;12.85;4.93;;;26.00;81.60;;;;;;5021458;28;20046;-55
2023/07/12 06:18:21;;;;;;;14.23;5.25;;;26.00;81.70;;;;;;5008087;28;20037;-55
2023/07/12 06:20:49;;;;;;;11.95;4.93;;;26.00;81.90;;;;;;5030430;28;20036;-54
2023/07/12 06:23:15;;;;;;;11.05;5.20;;;26.00;82.00;;;;;;5014661;28;20034;-55
2023/07/12 06:25:40;;;;;;;10.57;4.82;;;26.00;82.20;;;;;;5031006;28;20033;-55
2023/07/12 06:28:06;;;;;;;11.43;5.82;;;26.00;82.40;;;;;;5018575;28;20073;-55
2023/07/12 06:30:31;;;;;;;16.02;5.82;;;26.00;82.50;;;;;;4990097;28;20533;-55
2023/07/12 06:32:57;;;;;;;15.25;6.05;;;26.00;82.70;;;;;;5026268;28;20030;-55
2023/07/12 06:35:22;;;;;;;12.43;5.45;;;26.00;82.60;;;;;;5031351;28;20026;-55
2023/07/12 06:37:48;;;;;;;17.17;6.25;;;26.00;82.60;;;;;;5009557;28;20030;-55
2023/07/12 06:40:13;;;;;;;13.15;5.45;;;26.00;82.60;;;;;;5029510;28;20030;-55
2023/07/12 06:42:39;;;;;;;13.43;5.20;;;26.00;82.70;;;;;;5025443;28;20045;-55
2023/07/12 06:45:05;;;;;;;22.20;5.93;;;26.00;82.50;;;;;;5004110;28;20030;-55
2023/07/12 06:47:32;;;;;;;14.15;5.22;;;26.00;82.50;;;;;;5005676;28;20046;-55
2023/07/12 06:49:57;;;;;;;17.48;5.13;;;26.10;82.60;;;;;;5020183;28;20048;-55
2023/07/12 06:52:23;;;;;;;16.40;5.13;;;26.00;82.50;;;;;;5010856;28;20029;-55
2023/07/12 06:54:48;;;;;;;20.92;5.57;;;26.10;82.50;;;;;;5023488;28;20025;-55
2023/07/12 06:57:14;;;;;;;19.55;5.30;;;26.10;82.50;;;;;;5026879;28;20145;-55
2023/07/12 06:59:40;;;;;;;16.83;5.53;;;26.10;82.40;;;;;;5009878;28;20033;-55
2023/07/12 07:02:08;;;;;;;24.48;5.82;;;26.10;82.40;;;;;;5024725;28;20084;-55
2023/07/12 07:04:34;;;;;;;20.02;5.57;;;26.10;82.30;;;;;;5019021;28;20026;-55
2023/07/12 07:06:59;;;;;;;24.60;6.88;;;26.20;82.30;;;;;;5024180;28;20026;-54
2023/07/12 07:09:25;;;;;;;27.05;6.45;;;26.20;82.20;;;;;;5011261;28;20032;-55
2023/07/12 07:11:50;;;;;;;32.33;6.70;;;26.20;82.40;;;;;;5022091;28;20034;-55
2023/07/12 07:14:16;;;;;;;26.75;7.60;;;26.20;82.10;;;;;;5024674;28;20088;-54
2023/07/12 07:16:42;;;;;;;46.05;8.52;;;26.20;82.30;;;;;;5013497;28;20022;-55
2023/07/12 07:19:07;;;;;;;36.60;7.57;;;26.30;82.40;;;;;;5007848;28;20450;-55
2023/07/12 07:21:33;;;;;;;64.53;9.52;;;26.20;82.50;;;;;;5007908;28;20061;-54
2023/07/12 07:23:58;;;;;;;44.05;9.23;;;26.30;82.40;;;;;;5024826;28;20034;-55
2023/07/12 07:26:24;;;;;;;45.30;8.55;;;26.30;82.70;;;;;;5017540;28;20037;-55
2023/07/12 07:28:49;;;;;;;45.25;9.18;;;26.30;83.10;;;;;;5009353;28;20041;-55
2023/07/12 07:31:15;;;;;;;39.35;7.68;;;26.30;83.00;;;;;;5024685;28;20118;-54
2023/07/12 07:33:41;;;;;;;46.33;9.38;;;26.30;83.10;;;;;;5025330;28;20038;-55
2023/07/12 07:36:13;;;;;;;43.72;9.02;;;26.30;83.10;;;;;;5019660;28;20026;-55
2023/07/12 07:38:39;;;;;;;43.85;8.60;;;26.30;83.10;;;;;;5025127;28;20038;-54
2023/07/12 07:41:09;;;;;;;46.35;8.13;;;26.30;83.10;;;;;;5026495;28;20043;-54
2023/07/12 07:43:35;;;;;;;54.95;9.85;;;26.40;83.20;;;;;;5021585;28;20045;-54
2023/07/12 07:46:02;;;;;;;49.03;8.70;;;26.40;83.50;;;;;;5024375;28;20045;-55
2023/07/12 07:48:27;;;;;;;48.75;7.75;;;26.40;83.10;;;;;;5019913;28;20525;-54
2023/07/12 07:50:53;;;;;;;44.33;8.05;;;26.40;82.70;;;;;;5024147;28;20025;-54
2023/07/12 07:53:18;;;;;;;24.88;6.70;;;26.40;82.80;;;;;;5012287;28;20034;-54
2023/07/12 07:55:44;;;;;;;38.05;7.45;;;26.40;83.20;;;;;;5007195;28;20180;-54
2023/07/12 07:58:11;;;;;;;31.42;6.80;;;26.40;84.50;;;;;;4990775;28;20037;-54
2023/07/12 08:00:37;;;;;;;32.13;6.45;;;26.40;84.10;;;;;;5017267;28;20040;-54
2023/07/12 08:03:03;;;;;;;21.20;6.03;;;26.40;84.30;;;;;;5019766;28;20117;-54
2023/07/12 08:05:29;;;;;;;24.08;5.53;;;26.40;83.50;;;;;;5008570;28;20033;-54
2023/07/12 08:07:55;;;;;;;32.53;6.13;;;26.40;83.30;;;;;;5025083;28;20057;-54
2023/07/12 08:10:20;;;;;;;22.73;5.28;;;26.40;83.10;;;;;;5024433;28;20245;-54
2023/07/12 08:12:46;;;;;;;25.58;5.00;;;26.40;83.30;;;;;;5009528;28;20068;-54
2023/07/12 08:15:12;;;;;;;18.35;5.20;;;26.30;83.20;;;;;;5018187;28;20029;-54
2023/07/12 08:17:38;;;;;;;25.02;5.35;;;26.40;83.30;;;;;;5020468;28;20026;-54
2023/07/12 08:20:04;;;;;;;37.38;5.95;;;26.40;83.40;;;;;;5030242;28;20116;-54
2023/07/12 08:22:31;;;;;;;20.02;5.05;;;26.30;83.10;;;;;;5029154;28;20030;-54
2023/07/12 08:24:57;;;;;;;23.55;5.95;;;26.40;82.90;;;;;;5022398;28;20045;-54
2023/07/12 08:27:22;;;;;;;24.05;5.25;;;26.40;83.10;;;;;;5024728;28;20038;-54
2023/07/12 08:29:48;;;;;;;20.90;5.35;;;26.40;83.00;;;;;;5025463;28;20028;-54
2023/07/12 08:32:18;;;;;;;20.73;5.05;;;26.40;82.70;;;;;;5025106;28;20025;-54
2023/07/12 08:34:44;;;;;;;22.08;5.55;;;26.40;82.40;;;;;;5033335;28;20432;-54
2023/07/12 08:37:10;;;;;;;29.60;6.00;;;26.40;82.40;;;;;;5012134;28;20050;-54
2023/07/12 08:39:35;;;;;;;46.97;7.03;;;26.50;82.40;;;;;;5025605;28;20030;-54
2023/07/12 08:42:04;;;;;;;32.50;7.05;;;26.50;82.60;;;;;;5008927;28;20130;-55
2023/07/12 08:44:29;;;;;;;36.10;7.10;;;26.50;83.60;;;;;;5024370;28;20057;-54
2023/07/12 08:46:56;;;;;;;45.70;7.63;;;26.50;83.80;;;;;;5024361;28;20030;-54
2023/07/12 08:49:23;;;;;;;25.30;5.60;;;26.60;84.00;;;;;;5027797;28;20044;-54
2023/07/12 08:51:48;;;;;;;28.42;6.10;;;26.60;83.50;;;;;;4993796;28;20417;-54
2023/07/12 08:54:22;;;;;;;30.75;5.60;;;26.60;83.20;;;;;;5025613;28;20029;-54
2023/07/12 08:56:48;;;;;;;18.67;5.68;;;26.60;83.20;;;;;;5025237;28;20026;-54
2023/07/12 08:59:13;;;;;;;20.77;5.35;;;26.60;83.30;;;;;;5028883;28;20466;-54
2023/07/12 09:01:50;;;;;;;27.85;6.75;;;26.60;83.00;;;;;;5029476;28;20026;-54
2023/07/12 09:04:33;;;;;;;25.73;6.13;;;26.60;83.20;;;;;;5021389;28;20038;-54
2023/07/12 09:07:07;;;;;;;42.05;7.90;;;26.60;83.20;;;;;;5030929;28;20497;-54
2023/07/12 09:09:39;;;;;;;51.80;8.48;;;26.60;83.40;;;;;;5035869;28;20046;-54
2023/07/12 09:12:07;;;;;;;57.88;9.45;;;26.50;83.90;;;;;;5003573;28;20033;-54
2023/07/12 09:14:35;;;;;;;33.50;7.55;;;26.60;83.30;;;;;;5009268;28;20018;-54
2023/07/12 09:17:01;;;;;;;30.55;7.70;;;26.70;83.10;;;;;;5045183;28;20049;-54
2023/07/12 09:19:31;;;;;;;29.33;6.68;;;26.70;83.00;;;;;;5030845;28;20038;-54
2023/07/12 09:21:59;;;;;;;43.70;8.98;;;26.70;83.20;;;;;;5015405;28;20078;-54
2023/07/12 09:24:26;;;;;;;82.10;12.45;;;26.60;82.80;;;;;;5009068;28;20033;-54
2023/07/12 09:27:02;;;;;;;73.50;11.60;;;26.60;82.60;;;;;;5013102;28;20026;-54
2023/07/12 09:29:27;;;;;;;46.80;9.48;;;26.60;82.70;;;;;;5014399;28;20038;-54
2023/07/12 09:31:57;;;;;;;46.20;8.65;;;26.60;82.30;;;;;;5030708;28;20490;-54
2023/07/12 09:34:23;;;;;;;41.38;9.18;;;26.60;82.40;;;;;;5020756;28;20110;-54
2023/07/12 09:36:59;;;;;;;44.38;8.40;;;26.70;82.80;;;;;;5011878;28;20528;-54
2023/07/12 09:39:25;;;;;;;37.30;8.57;;;26.70;83.10;;;;;;5021423;28;20046;-54
2023/07/12 09:41:56;;;;;;;42.25;8.35;;;26.70;82.80;;;;;;5012097;28;20034;-54
2023/07/12 09:44:22;;;;;;;56.65;9.90;;;26.80;83.00;;;;;;5015921;28;20045;-54
2023/07/12 09:46:53;;;;;;;61.90;11.43;;;26.80;82.90;;;;;;5027228;28;20373;-54
2023/07/12 09:49:21;;;;;;;60.17;11.40;;;26.80;82.90;;;;;;5028256;28;20042;-54
2023/07/12 09:51:59;;;;;;;65.43;11.15;;;26.80;83.00;;;;;;5003610;28;20045;-54
2023/07/12 09:54:36;;;;;;;63.17;12.18;;;26.90;83.40;;;;;;5014127;28;20038;-54
2023/07/12 09:57:15;;;;;;;78.03;14.05;;;26.90;83.20;;;;;;5011153;28;20099;-54
2023/07/12 09:59:43;;;;;;;73.13;13.57;;;26.90;83.50;;;;;;4990416;28;20026;-54
2023/07/12 10:02:18;;;;;;;119.32;15.30;;;26.90;83.90;;;;;;5025555;28;20497;-54
2023/07/12 10:04:55;;;;;;;115.28;15.38;;;26.90;85.00;;;;;;5025787;28;20077;-54
2023/07/12 10:07:35;;;;;;;88.45;14.90;;;26.90;85.10;;;;;;5008934;28;20079;-54
2023/07/12 10:10:00;;;;;;;84.47;13.70;;;27.00;84.10;;;;;;5015624;28;20022;-54
2023/07/12 10:12:40;;;;;;;82.30;14.65;;;27.00;84.40;;;;;;5016267;28;20041;-54
2023/07/12 10:15:08;;;;;;;108.15;17.13;;;27.00;84.70;;;;;;5015626;28;20037;-55
2023/07/12 10:17:38;;;;;;;78.43;13.82;;;27.00;85.10;;;;;;5023826;28;20084;-54
2023/07/12 10:20:05;;;;;;;64.40;12.45;;;27.10;85.60;;;;;;5018511;28;20030;-54
2023/07/12 10:22:35;;;;;;;127.70;16.50;;;27.10;84.80;;;;;;4999321;28;20085;-54
2023/07/12 10:25:04;;;;;;;85.47;14.20;;;27.10;84.90;;;;;;5010732;28;20040;-54
2023/07/12 10:27:33;;;;;;;93.95;13.60;;;27.10;85.20;;;;;;4998987;28;20049;-54
2023/07/12 10:30:13;;;;;;;87.45;14.48;;;27.20;85.40;;;;;;5017556;28;20081;-54
2023/07/12 10:32:46;;;;;;;77.38;13.38;;;27.20;85.20;;;;;;5018966;28;20101;-54
2023/07/12 10:35:22;;;;;;;84.43;15.20;;;27.30;85.70;;;;;;5026184;28;20050;-54
2023/07/12 10:37:52;;;;;;;99.38;15.63;;;27.30;86.10;;;;;;5017515;28;20057;-54
2023/07/12 10:40:22;;;;;;;83.43;14.38;;;27.30;86.30;;;;;;5003782;28;20109;-54
2023/07/12 10:42:50;;;;;;;129.13;17.92;;;27.30;86.90;;;;;;5000693;28;20120;-54
2023/07/12 10:45:23;;;;;;;112.95;16.77;;;27.40;86.60;;;;;;5017171;28;20038;-54
2023/07/12 10:47:49;;;;;;;92.07;16.48;;;27.40;86.40;;;;;;5007184;28;20046;-53
2023/07/12 10:50:48;;;;;;;113.00;15.90;;;27.40;86.30;;;;;;4989863;28;20121;-54
2023/07/12 10:53:21;;;;;;;95.85;15.45;;;27.50;86.50;;;;;;5011070;28;20078;-54
2023/07/12 10:56:03;;;;;;;112.68;15.27;;;27.50;86.30;;;;;;5014330;28;20018;-54
2023/07/12 10:58:44;;;;;;;122.07;17.70;;;27.50;86.30;;;;;;5013627;28;20065;-54
2023/07/12 11:01:36;;;;;;;117.75;16.60;;;27.50;86.20;;;;;;5013659;28;20045;-54
2023/07/12 11:04:07;;;;;;;114.13;15.50;;;27.50;85.90;;;;;;5021686;28;20034;-54
2023/07/12 11:06:32;;;;;;;95.97;14.95;;;27.50;86.00;;;;;;5018575;28;20026;-54
2023/07/12 11:09:02;;;;;;;121.78;16.80;;;27.40;86.10;;;;;;5023502;28;20036;-54
2023/07/12 11:11:30;;;;;;;91.93;13.85;;;27.40;86.00;;;;;;5007760;28;20033;-54
2023/07/12 11:14:16;;;;;;;133.40;15.23;;;27.40;86.00;;;;;;4984699;28;20025;-54
2023/07/12 11:16:51;;;;;;;98.47;14.40;;;27.30;86.20;;;;;;5009978;28;20030;-54
2023/07/12 11:19:41;;;;;;;83.47;13.32;;;27.30;86.60;;;;;;5013313;28;20034;-55
2023/07/12 11:22:19;;;;;;;89.85;13.82;;;27.30;86.50;;;;;;5017888;28;20022;-54
2023/07/12 11:24:44;;;;;;;81.05;13.07;;;27.40;86.60;;;;;;5033989;28;20034;-54
2023/07/12 11:27:37;;;;;;;82.20;12.93;;;27.30;86.00;;;;;;5019716;28;20061;-54
2023/07/12 11:30:24;;;;;;;78.15;12.20;;;27.40;85.90;;;;;;5013027;28;20026;-54
2023/07/12 11:33:15;;;;;;;76.18;11.90;;;27.40;85.70;;;;;;5005232;28;20031;-54
2023/07/12 11:35:47;;;;;;;80.30;13.73;;;27.40;85.70;;;;;;5001456;28;20034;-54
2023/07/12 11:38:25;;;;;;;87.35;12.60;;;27.50;85.80;;;;;;5002707;28;20031;-54
2023/07/12 11:40:53;;;;;;;76.60;13.10;;;27.60;85.50;;;;;;5015503;28;20478;-54
2023/07/12 11:43:22;;;;;;;73.00;13.10;;;27.70;85.10;;;;;;5014536;28;20102;-54
2023/07/12 11:45:48;;;;;;;70.18;11.55;;;27.70;84.60;;;;;;5017736;28;20093;-54
2023/07/12 11:48:14;;;;;;;55.20;10.50;;;27.80;84.20;;;;;;4999641;28;20089;-54
2023/07/12 11:50:39;;;;;;;54.58;9.60;;;27.80;83.90;;;;;;5013491;28;20014;-54
2023/07/12 11:53:05;;;;;;;46.95;10.40;;;27.80;83.50;;;;;;5012994;28;20085;-54
2023/07/12 11:55:33;;;;;;;54.72;9.35;;;27.80;83.30;;;;;;5015139;28;20417;-53
2023/07/12 11:57:59;;;;;;;69.82;11.02;;;27.80;83.20;;;;;;5018177;28;20037;-54
2023/07/12 12:00:29;;;;;;;59.17;10.00;;;27.80;83.00;;;;;;5020601;28;20037;-53
2023/07/12 12:02:56;;;;;;;49.58;10.05;;;27.90;83.20;;;;;;5007012;28;20033;-53
2023/07/12 12:05:26;;;;;;;60.40;10.48;;;27.90;82.90;;;;;;5021841;28;20069;-53
2023/07/12 12:07:53;;;;;;;70.35;10.43;;;27.80;82.70;;;;;;5005736;28;20073;-53
2023/07/12 12:10:24;;;;;;;47.85;9.85;;;27.80;82.90;;;;;;5022610;28;20029;-54
2023/07/12 12:12:50;;;;;;;39.10;7.57;;;27.80;83.00;;;;;;5023479;28;20026;-53
2023/07/12 12:15:23;;;;;;;38.17;7.30;;;27.80;83.00;;;;;;5022931;28;20037;-53
2023/07/12 12:17:50;;;;;;;44.22;7.63;;;27.70;83.60;;;;;;5003924;28;20030;-53
2023/07/12 12:20:20;;;;;;;35.63;7.93;;;27.70;83.10;;;;;;5023636;28;20038;-54
2023/07/12 12:22:56;;;;;;;47.45;7.80;;;27.60;83.40;;;;;;4984893;28;20033;-52
2023/07/12 12:25:23;;;;;;;35.22;7.20;;;27.60;83.00;;;;;;5011589;28;20049;-53
2023/07/12 12:27:48;;;;;;;34.30;6.68;;;27.60;82.90;;;;;;5022581;28;20109;-54
2023/07/12 12:30:14;;;;;;;33.47;7.43;;;27.60;82.80;;;;;;5019943;28;20057;-53
2023/07/12 12:32:40;;;;;;;34.78;7.22;;;27.70;82.80;;;;;;5022175;28;20090;-53
2023/07/12 12:35:13;;;;;;;37.25;6.90;;;27.80;82.60;;;;;;5024359;28;20046;-53
2023/07/12 12:37:39;;;;;;;40.03;6.78;;;27.90;82.40;;;;;;4992982;28;20033;-53
2023/07/12 12:40:20;;;;;;;34.47;7.13;;;27.90;82.00;;;;;;5020501;28;20030;-53
2023/07/12 12:43:14;;;;;;;35.00;6.95;;;28.00;82.10;;;;;;5017436;28;20037;-54